createdAt,value
2017-10-11T00:01:38.805Z,6.90
2017-10-11T00:04:06.340Z,7.77
2017-10-11T00:06:33.888Z,7.67
2017-10-11T00:09:01.465Z,6.33
2017-10-11T00:11:29.011Z,7.70
2017-10-11T00:13:56.578Z,6.63
2017-10-11T00:16:24.121Z,6.83
2017-10-11T00:18:51.737Z,8.00
2017-10-11T00:21:19.293Z,8.20
2017-10-11T00:23:46.849Z,6.60
2017-10-11T00:26:14.396Z,7.17
2017-10-11T00:28:41.987Z,7.20
2017-10-11T00:31:09.524Z,6.03
2017-10-11T00:33:37.085Z,6.70
2017-10-11T00:36:04.651Z,6.03
2017-10-11T00:38:32.208Z,6.73
2017-10-11T00:40:59.794Z,5.67
2017-10-11T00:43:27.334Z,6.73
2017-10-11T00:45:54.896Z,5.80
2017-10-11T00:48:22.444Z,5.60
2017-10-11T00:50:50.005Z,6.20
2017-10-11T00:53:17.591Z,5.73
2017-10-11T00:55:45.138Z,6.93
2017-10-11T00:58:12.693Z,5.77
2017-10-11T01:00:40.233Z,6.57
2017-10-11T01:03:07.804Z,7.40
2017-10-11T01:05:35.335Z,6.33
2017-10-11T01:08:03.689Z,6.27
2017-10-11T01:10:31.243Z,6.50
2017-10-11T01:12:58.771Z,6.53
2017-10-11T01:15:26.355Z,5.87
2017-10-11T01:17:53.896Z,5.97
2017-10-11T01:20:21.477Z,6.60
2017-10-11T01:22:49.021Z,6.30
2017-10-11T01:25:16.602Z,6.50
2017-10-11T01:27:44.149Z,5.77
2017-10-11T01:30:11.686Z,6.50
2017-10-11T01:32:39.246Z,6.60
2017-10-11T01:35:06.785Z,6.47
2017-10-11T01:37:35.109Z,6.10
2017-10-11T01:40:02.669Z,6.43
2017-10-11T01:42:30.270Z,6.40
2017-10-11T01:44:57.818Z,7.70
2017-10-11T01:47:25.353Z,6.50
2017-10-11T01:49:52.918Z,6.53
2017-10-11T01:52:20.445Z,6.00
2017-10-11T01:54:48.811Z,7.57
2017-10-11T01:57:17.124Z,6.93
2017-10-11T01:59:44.680Z,6.07
2017-10-11T02:02:12.213Z,6.53
2017-10-11T02:04:40.561Z,6.47
2017-10-11T02:07:08.131Z,6.50
2017-10-11T02:09:35.687Z,5.87
2017-10-11T02:12:03.221Z,5.40
2017-10-11T02:14:30.795Z,4.70
2017-10-11T02:16:58.329Z,5.10
2017-10-11T02:19:25.885Z,5.80
2017-10-11T02:21:53.425Z,5.23
2017-10-11T02:24:21.756Z,5.70
2017-10-11T02:26:49.285Z,5.13
2017-10-11T02:29:16.867Z,5.60
2017-10-11T02:31:44.421Z,4.80
2017-10-11T02:34:11.949Z,5.13
2017-10-11T02:36:40.297Z,4.50
2017-10-11T02:39:07.834Z,4.93
2017-10-11T02:41:35.362Z,4.80
2017-10-11T02:44:03.698Z,4.83
2017-10-11T02:46:31.247Z,5.83
2017-10-11T02:48:58.816Z,6.30
2017-10-11T02:51:26.352Z,5.50
2017-10-11T02:53:53.916Z,6.50
2017-10-11T02:56:21.447Z,5.53
2017-10-11T02:58:49.744Z,5.17
2017-10-11T03:01:17.431Z,5.30
2017-10-11T03:03:44.984Z,4.90
2017-10-11T03:06:12.556Z,4.90
2017-10-11T03:08:40.096Z,5.70
2017-10-11T03:11:08.427Z,5.20
2017-10-11T03:13:35.957Z,5.03
2017-10-11T03:16:03.501Z,4.80
2017-10-11T03:18:31.820Z,5.00
2017-10-11T03:20:59.383Z,4.43
2017-10-11T03:23:26.932Z,4.80
2017-10-11T03:25:54.515Z,4.83
2017-10-11T03:28:22.062Z,5.33
2017-10-11T03:30:50.528Z,4.20
2017-10-11T03:33:18.105Z,4.63
2017-10-11T03:35:45.688Z,5.10
2017-10-11T03:38:13.224Z,5.03
2017-10-11T03:40:40.806Z,4.80
2017-10-11T03:43:08.360Z,4.50
2017-10-11T03:45:35.938Z,4.63
2017-10-11T03:48:03.491Z,5.23
2017-10-11T03:50:31.023Z,4.83
2017-10-11T03:52:58.598Z,5.17
2017-10-11T03:55:26.168Z,5.43
2017-10-11T03:57:53.749Z,4.80
2017-10-11T04:00:21.307Z,5.13
2017-10-11T04:02:48.846Z,5.13
2017-10-11T04:05:16.392Z,5.50
2017-10-11T04:07:43.951Z,5.67
2017-10-11T04:10:11.532Z,4.70
2017-10-11T04:12:39.084Z,5.13
2017-10-11T04:15:06.637Z,4.70
2017-10-11T04:17:34.199Z,5.40
2017-10-11T04:20:01.764Z,5.63
2017-10-11T04:22:29.289Z,4.57
2017-10-11T04:24:56.840Z,5.90
2017-10-11T04:27:24.415Z,5.40
2017-10-11T04:29:53.524Z,5.40
2017-10-11T04:32:21.879Z,5.30
2017-10-11T04:34:49.435Z,4.20
2017-10-11T04:37:16.973Z,5.17
2017-10-11T04:39:44.526Z,5.00
2017-10-11T04:42:12.069Z,4.87
2017-10-11T04:44:39.635Z,5.70
2017-10-11T04:47:07.165Z,5.30
2017-10-11T04:49:34.716Z,4.03
2017-10-11T04:52:02.279Z,5.50
2017-10-11T04:54:29.817Z,5.53
2017-10-11T04:56:57.377Z,5.90
2017-10-11T04:59:24.933Z,5.50
2017-10-11T05:01:52.507Z,7.00
2017-10-11T05:04:20.036Z,6.27
2017-10-11T05:06:47.584Z,6.00
2017-10-11T05:09:15.137Z,6.10
2017-10-11T05:11:42.697Z,6.17
2017-10-11T05:14:11.012Z,6.30
2017-10-11T05:16:38.577Z,6.53
2017-10-11T05:19:06.106Z,5.03
2017-10-11T05:21:33.648Z,5.60
2017-10-11T05:24:01.972Z,6.33
2017-10-11T05:26:29.529Z,6.60
2017-10-11T05:28:57.116Z,5.90
2017-10-11T05:31:24.664Z,6.30
2017-10-11T05:33:52.219Z,6.70
2017-10-11T05:36:19.774Z,6.03
2017-10-11T05:38:47.333Z,4.97
2017-10-11T05:41:14.925Z,6.00
2017-10-11T05:43:43.235Z,6.70
2017-10-11T05:46:11.565Z,5.30
2017-10-11T05:48:39.139Z,6.43
2017-10-11T05:51:06.697Z,5.90
2017-10-11T05:53:34.237Z,5.13
2017-10-11T05:56:01.783Z,5.93
2017-10-11T05:58:29.341Z,5.30
2017-10-11T06:00:57.648Z,5.53
2017-10-11T06:03:25.193Z,5.20
2017-10-11T06:05:52.764Z,6.33
2017-10-11T06:08:20.324Z,5.27
2017-10-11T06:10:47.908Z,4.80
2017-10-11T06:13:15.461Z,5.33
2017-10-11T06:15:43.009Z,4.37
2017-10-11T06:18:10.563Z,5.53
2017-10-11T06:20:38.112Z,5.10
2017-10-11T06:23:06.448Z,5.80
2017-10-11T06:25:33.995Z,5.30
2017-10-11T06:28:01.544Z,4.50
2017-10-11T06:30:29.109Z,4.17
2017-10-11T06:32:56.655Z,3.67
2017-10-11T06:35:24.221Z,3.83
2017-10-11T06:37:51.771Z,4.83
2017-10-11T06:40:19.343Z,3.60
2017-10-11T06:42:46.891Z,3.80
2017-10-11T06:45:14.460Z,3.63
2017-10-11T06:47:42.008Z,3.40
2017-10-11T06:50:10.347Z,3.73
2017-10-11T06:52:37.877Z,3.60
2017-10-11T06:55:05.444Z,3.87
2017-10-11T06:57:32.994Z,4.10
2017-10-11T07:00:00.537Z,3.43
2017-10-11T07:02:28.849Z,3.63
2017-10-11T07:04:56.394Z,3.90
2017-10-11T07:07:23.970Z,3.73
2017-10-11T07:09:51.520Z,3.00
2017-10-11T07:12:19.099Z,3.33
2017-10-11T07:14:46.642Z,3.53
2017-10-11T07:17:14.185Z,3.10
2017-10-11T07:19:42.511Z,3.33
2017-10-11T07:22:10.106Z,3.37
2017-10-11T07:24:37.637Z,2.80
2017-10-11T07:27:05.180Z,3.83
2017-10-11T07:29:32.738Z,3.33
2017-10-11T07:32:00.265Z,3.77
2017-10-11T07:34:28.612Z,3.17
2017-10-11T07:36:56.146Z,3.10
2017-10-11T07:39:23.700Z,3.17
2017-10-11T07:41:51.273Z,3.17
2017-10-11T07:44:18.809Z,3.80
2017-10-11T07:46:46.369Z,3.07
2017-10-11T07:49:13.912Z,4.23
2017-10-11T07:51:42.218Z,3.47
2017-10-11T07:54:09.784Z,3.20
2017-10-11T07:56:37.336Z,3.17
2017-10-11T07:59:04.901Z,3.60
2017-10-11T08:01:32.453Z,2.90
2017-10-11T08:04:00.017Z,3.00
2017-10-11T08:06:27.567Z,3.70
2017-10-11T08:08:55.875Z,3.10
2017-10-11T08:11:23.463Z,3.73
2017-10-11T08:13:50.991Z,3.83
2017-10-11T08:16:18.566Z,3.13
2017-10-11T08:18:46.100Z,2.50
2017-10-11T08:21:14.424Z,3.40
2017-10-11T08:23:41.958Z,3.10
2017-10-11T08:26:09.489Z,2.80
2017-10-11T08:28:37.829Z,2.80
2017-10-11T08:31:05.374Z,2.70
2017-10-11T08:33:32.933Z,2.63
2017-10-11T08:36:00.461Z,2.73
2017-10-11T08:38:28.761Z,2.50
2017-10-11T08:40:56.341Z,2.60
2017-10-11T08:43:23.880Z,2.97
2017-10-11T08:45:51.461Z,2.47
2017-10-11T08:48:19.013Z,2.50
2017-10-11T08:50:46.557Z,2.30
2017-10-11T08:53:14.133Z,2.00
2017-10-11T08:55:41.684Z,2.00
2017-10-11T08:58:09.250Z,2.20
2017-10-11T09:00:36.790Z,1.70
2017-10-11T09:03:05.117Z,2.00
2017-10-11T09:05:32.648Z,1.93
2017-10-11T09:08:00.182Z,1.70
2017-10-11T09:10:27.777Z,2.07
2017-10-11T09:12:55.313Z,1.30
2017-10-11T09:15:23.656Z,1.27
2017-10-11T09:17:51.200Z,1.60
2017-10-11T09:20:19.097Z,1.40
2017-10-11T09:22:46.649Z,1.10
2017-10-11T09:25:14.234Z,1.63
2017-10-11T09:27:41.787Z,1.50
2017-10-11T09:30:09.353Z,1.50
2017-10-11T09:32:36.909Z,1.37
2017-10-11T09:35:04.458Z,1.80
2017-10-11T09:37:32.788Z,1.73
2017-10-11T09:40:00.347Z,1.87
2017-10-11T09:42:28.687Z,1.90
2017-10-11T09:44:56.233Z,1.70
2017-10-11T09:47:23.770Z,2.40
2017-10-11T09:49:51.331Z,1.30
2017-10-11T09:52:18.880Z,1.53
2017-10-11T09:54:46.477Z,1.67
2017-10-11T09:57:14.031Z,1.97
2017-10-11T09:59:41.573Z,1.40
2017-10-11T10:02:09.143Z,1.63
2017-10-11T10:04:36.703Z,1.67
2017-10-11T10:07:04.273Z,2.13
2017-10-11T10:09:31.824Z,1.70
2017-10-11T10:11:59.408Z,2.20
2017-10-11T10:14:26.959Z,1.63
2017-10-11T10:16:54.510Z,2.17
2017-10-11T10:19:22.078Z,1.90
2017-10-11T10:21:49.643Z,2.30
2017-10-11T10:24:17.197Z,2.37
2017-10-11T10:26:44.752Z,2.70
2017-10-11T10:29:12.301Z,2.37
2017-10-11T10:31:40.684Z,2.80
2017-10-11T10:34:09.006Z,2.80
2017-10-11T10:36:36.571Z,3.20
2017-10-11T10:39:04.147Z,2.63
2017-10-11T10:41:31.693Z,2.57
2017-10-11T10:43:59.270Z,2.80
2017-10-11T10:46:26.828Z,2.97
2017-10-11T10:48:54.401Z,3.17
2017-10-11T10:51:21.960Z,2.83
2017-10-11T10:53:49.536Z,3.03
2017-10-11T10:56:17.068Z,3.53
2017-10-11T10:58:44.619Z,2.83
2017-10-11T11:01:12.193Z,3.60
2017-10-11T11:03:39.754Z,3.23
2017-10-11T11:06:07.332Z,4.10
2017-10-11T11:08:34.878Z,3.03
2017-10-11T11:11:02.429Z,3.40
2017-10-11T11:13:29.965Z,2.90
2017-10-11T11:15:57.541Z,3.50
2017-10-11T11:18:25.089Z,3.40
2017-10-11T11:20:52.620Z,3.77
2017-10-11T11:23:20.948Z,3.70
2017-10-11T11:25:48.491Z,4.03
2017-10-11T11:28:16.037Z,4.80
2017-10-11T11:30:44.451Z,4.10
2017-10-11T11:33:12.010Z,4.50
2017-10-11T11:35:39.559Z,4.23
2017-10-11T11:38:07.124Z,4.70
2017-10-11T11:40:34.691Z,4.33
2017-10-11T11:43:02.226Z,4.57
2017-10-11T11:45:30.565Z,5.00
2017-10-11T11:47:58.110Z,4.23
2017-10-11T11:50:25.677Z,4.33
2017-10-11T11:52:53.226Z,4.53
2017-10-11T11:55:20.769Z,4.43
2017-10-11T11:57:48.356Z,3.27
2017-10-11T12:00:15.891Z,3.53
2017-10-11T12:02:43.463Z,3.73
2017-10-11T12:05:10.996Z,3.40
2017-10-11T12:07:39.322Z,3.60
2017-10-11T12:10:06.873Z,3.47
2017-10-11T12:12:34.504Z,3.60
2017-10-11T12:15:02.815Z,3.67
2017-10-11T12:17:30.402Z,3.43
2017-10-11T12:19:57.994Z,4.20
2017-10-11T12:22:26.323Z,3.70
2017-10-11T12:24:53.934Z,4.30
2017-10-11T12:27:22.253Z,3.60
2017-10-11T12:29:49.793Z,3.73
2017-10-11T12:32:18.127Z,4.23
2017-10-11T12:34:45.679Z,3.87
2017-10-11T12:37:13.259Z,3.87
2017-10-11T12:39:40.802Z,3.90
2017-10-11T12:42:08.379Z,3.53
2017-10-11T12:44:35.957Z,3.87
2017-10-11T12:47:03.504Z,3.70
2017-10-11T12:49:31.076Z,4.00
2017-10-11T12:51:58.629Z,3.57
2017-10-11T12:54:26.176Z,2.73
2017-10-11T12:56:53.710Z,3.27
2017-10-11T12:59:21.312Z,3.10
2017-10-11T13:01:48.850Z,3.60
2017-10-11T13:04:16.424Z,2.90
2017-10-11T13:06:43.991Z,3.20
2017-10-11T13:09:11.566Z,3.23
2017-10-11T13:11:39.105Z,3.40
2017-10-11T13:14:06.638Z,3.63
2017-10-11T13:16:34.224Z,3.23
2017-10-11T13:19:01.766Z,3.90
2017-10-11T13:21:29.321Z,3.00
2017-10-11T13:23:56.856Z,4.17
2017-10-11T13:26:25.175Z,3.93
2017-10-11T13:28:52.751Z,3.90
2017-10-11T13:31:20.294Z,4.00
2017-10-11T13:33:47.851Z,4.07
2017-10-11T13:36:15.395Z,4.77
2017-10-11T13:38:43.727Z,3.70
2017-10-11T13:41:11.258Z,5.13
2017-10-11T13:43:38.794Z,3.67
2017-10-11T13:46:07.126Z,2.97
2017-10-11T13:48:34.657Z,4.20
2017-10-11T13:51:02.254Z,4.43
2017-10-11T13:53:29.781Z,3.27
2017-10-11T13:55:57.358Z,2.97
2017-10-11T13:58:24.893Z,3.53
2017-10-11T14:00:52.465Z,3.10
2017-10-11T14:03:20.014Z,3.70
2017-10-11T14:05:47.592Z,3.77
2017-10-11T14:08:15.120Z,3.10
2017-10-11T14:10:43.465Z,2.60
2017-10-11T14:13:11.019Z,3.20
2017-10-11T14:15:38.576Z,3.90
2017-10-11T14:18:06.235Z,3.30
2017-10-11T14:20:33.799Z,3.77
2017-10-11T14:23:01.389Z,3.80
2017-10-11T14:25:28.930Z,4.00
2017-10-11T14:27:56.464Z,3.73
2017-10-11T14:30:24.031Z,3.10
2017-10-11T14:32:51.578Z,2.90
2017-10-11T14:35:19.152Z,3.20
2017-10-11T14:37:46.682Z,3.40
2017-10-11T14:40:15.013Z,4.30
2017-10-11T14:42:42.570Z,3.90
2017-10-11T14:45:10.104Z,3.07
2017-10-11T14:47:38.438Z,3.50
2017-10-11T14:50:05.969Z,3.70
2017-10-11T14:52:33.540Z,3.17
2017-10-11T14:55:01.089Z,3.63
2017-10-11T14:57:28.631Z,3.47
2017-10-11T14:59:56.198Z,3.30
2017-10-11T15:02:23.747Z,2.70
2017-10-11T15:04:52.073Z,3.87
2017-10-11T15:07:19.631Z,3.23
2017-10-11T15:09:47.198Z,4.07
2017-10-11T15:12:14.729Z,3.63
2017-10-11T15:14:42.295Z,3.97
2017-10-11T15:17:09.870Z,3.90
2017-10-11T15:19:37.428Z,4.17
2017-10-11T15:22:05.001Z,4.63
2017-10-11T15:24:32.557Z,3.63
2017-10-11T15:27:00.103Z,2.97
2017-10-11T15:29:27.676Z,3.43
2017-10-11T15:31:55.201Z,3.57
2017-10-11T15:34:23.539Z,3.60
2017-10-11T15:36:51.088Z,3.67
2017-10-11T15:39:18.627Z,3.00
2017-10-11T15:41:46.211Z,4.20
2017-10-11T15:44:13.759Z,3.00
2017-10-11T15:46:41.346Z,3.87
2017-10-11T15:49:08.889Z,3.27
2017-10-11T15:51:36.422Z,3.80
2017-10-11T15:54:03.999Z,3.90
2017-10-11T15:56:31.547Z,3.43
2017-10-11T15:58:59.169Z,3.70
2017-10-11T16:01:26.698Z,3.83
2017-10-11T16:03:54.232Z,4.20
2017-10-11T16:06:21.781Z,2.93
2017-10-11T16:08:50.086Z,3.67
2017-10-11T16:11:17.660Z,3.40
2017-10-11T16:13:45.186Z,3.40
2017-10-11T16:16:13.509Z,3.27
2017-10-11T16:18:41.073Z,4.17
2017-10-11T16:21:08.619Z,3.90
2017-10-11T16:23:36.190Z,3.50
2017-10-11T16:26:03.765Z,4.00
2017-10-11T16:28:31.314Z,3.50
2017-10-11T16:30:58.875Z,3.50
2017-10-11T16:33:26.414Z,3.63
2017-10-11T16:35:53.999Z,3.93
2017-10-11T16:38:21.546Z,2.83
2017-10-11T16:40:49.091Z,4.10
2017-10-11T16:43:17.425Z,3.47
2017-10-11T16:45:44.978Z,3.87
2017-10-11T16:48:12.539Z,4.00
2017-10-11T16:50:40.078Z,3.80
2017-10-11T16:53:07.615Z,3.53
2017-10-11T16:55:35.170Z,3.93
2017-10-11T16:58:03.464Z,4.00
2017-10-11T17:00:31.035Z,4.23
2017-10-11T17:02:58.561Z,4.77
2017-10-11T17:05:26.885Z,4.13
2017-10-11T17:07:54.437Z,3.40
2017-10-11T17:10:22.003Z,3.20
2017-10-11T17:12:49.674Z,3.00
2017-10-11T17:15:17.205Z,3.27
2017-10-11T17:17:45.500Z,3.30
2017-10-11T17:20:13.072Z,4.30
2017-10-11T17:22:40.603Z,4.23
2017-10-11T17:25:08.948Z,3.87
2017-10-11T17:27:36.504Z,3.37
2017-10-11T17:30:04.060Z,4.10
2017-10-11T17:32:31.636Z,3.47
2017-10-11T17:34:59.193Z,3.60
2017-10-11T17:37:26.768Z,3.80
2017-10-11T17:39:54.305Z,4.00
2017-10-11T17:42:21.846Z,3.90
2017-10-11T17:44:49.402Z,4.63
2017-10-11T17:47:17.000Z,4.70
2017-10-11T17:49:44.564Z,4.53
2017-10-11T17:52:12.119Z,4.00
2017-10-11T17:54:39.653Z,4.10
2017-10-11T17:57:07.219Z,3.93
2017-10-11T17:59:34.758Z,3.87
2017-10-11T18:02:02.331Z,4.00
2017-10-11T18:04:29.891Z,3.50
2017-10-11T18:06:57.430Z,3.80
2017-10-11T18:09:25.759Z,3.63
2017-10-11T18:11:53.289Z,3.83
2017-10-11T18:14:20.860Z,4.00
2017-10-11T18:16:48.416Z,2.87
2017-10-11T18:19:16.746Z,4.13
2017-10-11T18:21:44.291Z,3.50
2017-10-11T18:24:11.854Z,3.30
2017-10-11T18:26:39.435Z,3.37
2017-10-11T18:29:06.974Z,2.90
2017-10-11T18:31:34.555Z,3.13
2017-10-11T18:34:02.112Z,3.47
2017-10-11T18:36:29.679Z,2.83
2017-10-11T18:38:57.210Z,2.97
2017-10-11T18:41:24.769Z,3.20
2017-10-11T18:43:52.318Z,2.90
2017-10-11T18:46:19.873Z,2.87
2017-10-11T18:48:47.426Z,3.20
2017-10-11T18:51:14.956Z,3.17
2017-10-11T18:53:42.592Z,2.50
2017-10-11T18:56:10.144Z,2.90
2017-10-11T18:58:37.678Z,3.60
2017-10-11T19:01:05.247Z,3.00
2017-10-11T19:03:32.796Z,3.20
2017-10-11T19:06:00.360Z,3.00
2017-10-11T19:08:27.921Z,2.70
2017-10-11T19:10:55.462Z,2.40
2017-10-11T19:13:23.801Z,2.70
2017-10-11T19:15:51.348Z,2.70
2017-10-11T19:18:18.987Z,2.90
2017-10-11T19:20:46.525Z,2.73
2017-10-11T19:23:14.068Z,2.87
2017-10-11T19:25:41.616Z,2.90
2017-10-11T19:28:09.187Z,3.07
2017-10-11T19:30:36.741Z,2.60
2017-10-11T19:33:04.427Z,2.50
2017-10-11T19:35:31.974Z,3.60
2017-10-11T19:37:59.517Z,2.67
2017-10-11T19:40:27.095Z,2.90
2017-10-11T19:42:54.642Z,3.13
2017-10-11T19:45:22.210Z,3.10
2017-10-11T19:47:49.750Z,2.67
2017-10-11T19:50:17.307Z,3.10
2017-10-11T19:52:44.876Z,2.60
2017-10-11T19:55:12.418Z,2.50
2017-10-11T19:57:39.978Z,3.60
2017-10-11T20:00:19.398Z,3.10
2017-10-11T20:02:47.730Z,2.90
2017-10-11T20:05:15.273Z,3.20
2017-10-11T20:07:42.820Z,3.57
2017-10-11T20:10:10.400Z,3.00
2017-10-11T20:12:37.956Z,2.77
2017-10-11T20:15:05.517Z,2.70
2017-10-11T20:17:33.049Z,2.90
2017-10-11T20:20:01.359Z,3.43
2017-10-11T20:22:28.917Z,3.30
2017-10-11T20:24:56.471Z,2.60
2017-10-11T20:27:24.033Z,3.00
2017-10-11T20:29:51.570Z,3.07
2017-10-11T20:32:19.883Z,2.53
2017-10-11T20:34:47.442Z,3.20
2017-10-11T20:37:14.995Z,3.03
2017-10-11T20:39:42.553Z,2.53
2017-10-11T20:42:10.849Z,2.33
2017-10-11T20:44:38.405Z,3.00
2017-10-11T20:47:05.968Z,2.37
2017-10-11T20:49:33.503Z,3.20
2017-10-11T20:52:01.819Z,2.93
2017-10-11T20:54:29.345Z,2.63
2017-10-11T20:56:57.692Z,2.37
2017-10-11T20:59:25.223Z,2.60
2017-10-11T21:01:52.757Z,2.90
2017-10-11T21:04:21.082Z,3.43
2017-10-11T21:06:48.624Z,2.87
2017-10-11T21:09:16.207Z,2.57
2017-10-11T21:11:43.736Z,2.13
2017-10-11T21:14:11.288Z,2.27
2017-10-11T21:16:38.829Z,2.07
2017-10-11T21:19:07.133Z,1.93
2017-10-11T21:21:34.701Z,2.40
2017-10-11T21:24:02.247Z,2.20
2017-10-11T21:26:30.542Z,1.90
2017-10-11T21:28:58.121Z,2.37
2017-10-11T21:31:25.649Z,2.17
2017-10-11T21:33:53.218Z,1.93
2017-10-11T21:36:20.773Z,2.30
2017-10-11T21:38:48.338Z,1.83
2017-10-11T21:41:16.676Z,1.87
2017-10-11T21:43:44.212Z,1.80
2017-10-11T21:46:11.791Z,2.47
2017-10-11T21:48:39.340Z,1.90
2017-10-11T21:51:06.898Z,2.00
2017-10-11T21:53:34.476Z,2.27
2017-10-11T21:56:02.027Z,1.83
2017-10-11T21:58:29.603Z,1.97
2017-10-11T22:00:57.146Z,1.67
2017-10-11T22:03:24.678Z,2.27
2017-10-11T22:05:52.239Z,1.93
2017-10-11T22:08:19.791Z,2.00
2017-10-11T22:10:48.134Z,1.80
2017-10-11T22:13:15.684Z,1.77
2017-10-11T22:15:43.229Z,1.50
2017-10-11T22:18:10.788Z,1.80
2017-10-11T22:20:38.341Z,1.90
2017-10-11T22:23:05.913Z,1.93
2017-10-11T22:25:33.440Z,1.70
2017-10-11T22:28:01.734Z,1.57
2017-10-11T22:30:29.312Z,1.63
2017-10-11T22:32:56.852Z,1.97
2017-10-11T22:35:24.410Z,2.00
2017-10-11T22:37:51.968Z,1.63
2017-10-11T22:40:20.312Z,2.10
2017-10-11T22:42:47.852Z,3.07
2017-10-11T22:45:15.401Z,1.83
2017-10-11T22:47:42.955Z,2.03
2017-10-11T22:50:10.528Z,2.30
2017-10-11T22:52:39.391Z,2.13
2017-10-11T22:55:07.689Z,1.70
2017-10-11T22:57:35.224Z,1.70
2017-10-11T23:00:03.560Z,2.77
2017-10-11T23:02:31.885Z,2.07
2017-10-11T23:05:00.231Z,2.23
2017-10-11T23:07:27.763Z,2.27
2017-10-11T23:09:55.303Z,1.70
2017-10-11T23:12:22.853Z,2.83
2017-10-11T23:14:51.158Z,2.67
2017-10-11T23:17:18.737Z,2.77
2017-10-11T23:19:46.297Z,2.77
2017-10-11T23:22:13.842Z,2.97
2017-10-11T23:24:41.403Z,2.03
2017-10-11T23:27:08.933Z,2.60
2017-10-11T23:29:37.256Z,2.97
2017-10-11T23:32:04.790Z,2.60
2017-10-11T23:34:32.350Z,2.83
2017-10-11T23:36:59.925Z,2.40
2017-10-11T23:39:27.475Z,2.23
2017-10-11T23:41:55.062Z,2.20
2017-10-11T23:44:22.599Z,1.77
2017-10-11T23:46:50.140Z,2.00
2017-10-11T23:49:18.464Z,2.30
2017-10-11T23:51:46.000Z,2.40
2017-10-11T23:54:13.583Z,1.97
2017-10-11T23:56:41.122Z,2.00
2017-10-11T23:59:08.677Z,2.60
